Time;durP1;ratioP1;P1;durP2;ratioP2;P2;SDS_P1;SDS_P2;PMS_P1;PMS_P2;Temp;Humidity;BMP_temperature;BMP_pressure;BME280_temperature;BME280_humidity;BME280_pressure;Samples;Min_cycle;Max_cycle;Signal;HPM_P1;HPM_P2
2023/10/19 00:09:22;;;;;;;10.40;4.40;;;;;;;11.03;73.92;100360.72;31014895;28;20046;-79
2023/10/19 00:24:25;;;;;;;6.50;4.00;;;;;;;11.34;72.62;100347.75;31011581;28;20117;-76
2023/10/19 00:39:27;;;;;;;7.73;4.30;;;;;;;11.34;72.45;100337.63;31004981;28;20050;-75
2023/10/19 01:09:59;;;;;;;10.27;4.20;;;;;;;11.36;76.82;100334.50;31003876;28;20082;-79
2023/10/19 01:25:08;;;;;;;8.80;4.93;;;;;;;11.43;75.49;100335.13;31008464;28;20058;-82
2023/10/19 01:40:14;;;;;;;11.50;4.73;;;;;;;11.42;76.30;100338.25;31004699;28;20062;-76
2023/10/19 01:55:20;;;;;;;7.63;3.87;;;;;;;11.56;76.78;100335.28;30998649;28;20465;-76
2023/10/19 02:10:23;;;;;;;8.83;4.27;;;;;;;11.51;78.54;100330.31;30998123;28;20137;-75
2023/10/19 02:25:28;;;;;;;11.57;4.37;;;;;;;11.49;79.70;100333.47;31001953;28;20061;-76
2023/10/19 02:40:31;;;;;;;9.97;4.20;;;;;;;11.35;82.87;100322.84;30995116;28;20081;-76
2023/10/19 02:55:33;;;;;;;9.07;4.37;;;;;;;11.72;82.84;100318.25;30991364;28;20061;-76
2023/10/19 03:10:41;;;;;;;7.97;4.47;;;;;;;11.95;82.73;100310.00;30988878;28;20471;-76
2023/10/19 03:26:22;;;;;;;6.83;4.30;;;;;;;11.89;82.73;100309.72;30999684;28;20081;-76
2023/10/19 03:41:21;;;;;;;7.90;4.47;;;;;;;12.16;83.02;100314.97;30985527;28;20078;-77
2023/10/19 03:56:24;;;;;;;10.40;4.70;;;;;;;12.07;82.44;100306.59;30987919;28;20069;-76
2023/10/19 04:11:32;;;;;;;13.77;5.77;;;;;;;11.98;83.87;100313.84;30987134;28;20054;-76
2023/10/19 04:26:37;;;;;;;11.73;5.77;;;;;;;11.94;84.26;100314.69;31008482;28;20085;-76
2023/10/19 04:41:40;;;;;;;11.00;5.00;;;;;;;11.93;85.75;100339.59;31010509;28;20061;-81
2023/10/19 04:56:43;;;;;;;10.87;6.17;;;;;;;12.24;85.53;100337.34;31019201;28;20058;-77
2023/10/19 05:11:45;;;;;;;11.10;5.57;;;;;;;12.83;83.05;100356.16;31020379;28;20057;-80
2023/10/19 05:26:48;;;;;;;9.03;4.70;;;;;;;13.83;76.72;100353.53;31017021;28;20061;-77
2023/10/19 05:41:50;;;;;;;7.60;4.77;;;;;;;15.45;72.62;100362.38;31017075;28;20066;-77
2023/10/19 05:56:53;;;;;;;7.47;4.20;;;;;;;17.07;65.56;100365.50;30997653;28;20054;-78
2023/10/19 06:11:55;;;;;;;7.37;4.33;;;;;;;18.50;60.98;100377.13;30997332;28;20050;-78
2023/10/19 06:26:58;;;;;;;7.93;4.20;;;;;;;19.19;58.78;100376.09;31002216;28;20509;-83
2023/10/19 06:42:00;;;;;;;7.73;4.10;;;;;;;20.16;57.96;100374.56;30993661;28;20053;-78
2023/10/19 06:57:05;;;;;;;5.23;3.03;;;;;;;20.87;56.12;100373.34;30992883;28;20112;-77
2023/10/19 07:12:08;;;;;;;7.95;4.30;;;;;;;21.71;54.76;100377.81;30995770;28;20048;-78
2023/10/19 07:27:18;;;;;;;8.00;2.92;;;;;;;22.08;53.93;100384.19;30994817;28;20137;-77
2023/10/19 07:42:37;;;;;;;6.50;2.90;;;;;;;22.92;52.25;100389.47;30992701;28;20050;-77
2023/10/19 07:57:42;;;;;;;4.22;2.90;;;;;;;23.43;51.27;100375.31;31011489;28;20081;-79
2023/10/19 08:12:47;;;;;;;4.85;2.92;;;;;;;24.72;48.98;100378.84;31017136;28;20046;-76
2023/10/19 08:27:50;;;;;;;9.35;3.47;;;;;;;25.32;47.65;100389.44;31012807;28;20181;-79
2023/10/19 08:42:53;;;;;;;4.20;2.93;;;;;;;24.97;47.07;100384.59;31009389;28;20078;-78
2023/10/19 08:57:55;;;;;;;2.83;1.83;;;;;;;25.56;46.12;100369.34;30997971;28;20141;-78
2023/10/19 09:13:07;;;;;;;2.70;1.60;;;;;;;26.14;45.83;100351.22;31008392;28;20050;-77
2023/10/19 09:28:13;;;;;;;7.47;1.85;;;;;;;25.98;45.94;100335.44;31011423;28;20058;-79
2023/10/19 09:43:22;;;;;;;3.67;1.58;;;;;;;26.33;44.34;100333.84;31008511;28;20570;-78
2023/10/19 09:58:29;;;;;;;5.53;2.30;;;;;;;26.64;44.50;100296.31;31005984;28;20137;-78
2023/10/19 10:13:37;;;;;;;3.95;1.77;;;;;;;27.11;42.81;100291.13;31004085;28;20529;-84
2023/10/19 10:28:47;;;;;;;7.25;1.90;;;;;;;26.58;42.88;100282.44;31001172;28;20153;-82
2023/10/19 10:43:57;;;;;;;1.55;1.10;;;;;;;26.63;43.05;100262.13;30994140;28;20050;-80
2023/10/19 10:58:59;;;;;;;3.15;1.60;;;;;;;25.85;44.36;100246.31;31003152;28;20089;-81
2023/10/19 11:14:09;;;;;;;6.63;1.92;;;;;;;24.52;46.66;100245.19;31001482;28;20057;-81
2023/10/19 11:29:16;;;;;;;4.00;1.98;;;;;;;25.43;43.78;100233.78;31016062;28;20094;-82
2023/10/19 11:44:19;;;;;;;2.60;1.88;;;;;;;25.02;44.25;100233.84;31024098;28;20126;-83
2023/10/19 11:59:21;;;;;;;8.97;1.50;;;;;;;24.13;45.66;100219.06;31023955;28;20062;-83
2023/10/19 12:14:23;;;;;;;2.42;1.48;;;;;;;23.04;47.50;100228.47;31022690;28;20046;-82
2023/10/19 12:29:25;;;;;;;2.65;1.23;;;;;;;22.17;50.48;100235.97;31021656;28;20055;-82
2023/10/19 12:44:38;;;;;;;5.20;1.50;;;;;;;21.85;50.85;100236.00;31016651;28;20054;-85
2023/10/19 13:15:48;;;;;;;4.22;1.70;;;;;;;21.18;51.81;100216.13;30723854;28;19922;-79
2023/10/19 13:30:53;;;;;;;2.80;1.52;;;;;;;20.87;53.79;100202.28;31029080;28;20055;-88
2023/10/19 13:45:55;;;;;;;;;;;;;;;20.40;57.12;100182.22;31014142;28;20050;-85
2023/10/19 14:16:27;;;;;;;2.40;1.70;;;;;;;19.48;60.97;100176.41;31008145;28;20046;-82
2023/10/19 14:31:29;;;;;;;2.97;2.07;;;;;;;19.31;63.05;100168.66;31002332;28;20054;-84
2023/10/19 14:46:32;;;;;;;6.23;2.03;;;;;;;19.10;64.35;100150.56;31003850;28;20058;-84
2023/10/19 15:01:35;;;;;;;5.63;1.93;;;;;;;18.86;64.68;100171.91;31009152;28;20054;-85
2023/10/19 15:16:37;;;;;;;4.07;2.13;;;;;;;18.68;64.26;100162.56;31006822;28;20065;-84
2023/10/19 15:31:40;;;;;;;3.10;2.23;;;;;;;18.55;63.68;100167.56;31011891;28;20514;-87
2023/10/19 15:46:53;;;;;;;3.30;1.93;;;;;;;18.51;63.56;100188.97;31016803;28;20390;-86
2023/10/19 16:01:57;;;;;;;4.07;2.37;;;;;;;18.36;63.96;100179.94;31006987;28;20105;-82
2023/10/19 16:16:59;;;;;;;9.00;3.70;;;;;;;18.19;64.14;100176.84;31047225;28;20089;-82
2023/10/19 16:32:03;;;;;;;4.77;2.67;;;;;;;18.04;61.69;100171.31;31015097;28;20061;-80
2023/10/19 16:47:06;;;;;;;4.57;2.77;;;;;;;17.75;59.66;100168.41;31003505;28;20047;-81
2023/10/19 17:02:09;;;;;;;8.80;2.93;;;;;;;17.66;58.60;100154.75;31007315;28;20054;-82
2023/10/19 17:17:12;;;;;;;7.27;2.83;;;;;;;17.26;58.41;100179.72;31003127;28;20051;-80
2023/10/19 17:32:14;;;;;;;5.70;2.90;;;;;;;17.04;58.84;100175.19;30996682;28;20113;-82
2023/10/19 17:47:17;;;;;;;4.23;2.77;;;;;;;16.80;59.38;100198.25;31003584;28;20573;-83
2023/10/19 18:02:19;;;;;;;4.83;3.27;;;;;;;16.48;60.33;100205.84;30996343;28;20573;-78
2023/10/19 18:17:23;;;;;;;6.00;3.43;;;;;;;16.13;61.03;100196.34;30990225;28;20058;-85
2023/10/19 18:32:32;;;;;;;7.13;3.20;;;;;;;15.87;63.98;100191.13;30993415;28;20054;-82
2023/10/19 18:47:35;;;;;;;10.30;3.53;;;;;;;15.73;65.59;100185.47;30974412;28;20050;-80
2023/10/19 19:02:37;;;;;;;8.13;3.80;;;;;;;15.53;69.72;100178.38;30995662;28;20046;-82
2023/10/19 19:17:41;;;;;;;6.40;3.00;;;;;;;15.76;73.37;100168.16;30995495;28;20150;-81
2023/10/19 19:32:44;;;;;;;6.20;2.90;;;;;;;15.66;76.30;100153.66;30986159;28;20509;-79
2023/10/19 19:47:47;;;;;;;6.90;2.23;;;;;;;15.69;77.83;100152.75;30993527;28;20469;-80
2023/10/19 20:02:49;;;;;;;4.10;2.57;;;;;;;15.61;79.15;100146.78;31006407;28;20514;-82
2023/10/19 20:17:51;;;;;;;4.30;2.67;;;;;;;15.55;80.20;100109.53;30996904;28;20121;-81
2023/10/19 20:32:55;;;;;;;4.10;2.77;;;;;;;15.30;82.30;100110.50;31005259;28;20050;-77
2023/10/19 20:47:57;;;;;;;4.30;2.80;;;;;;;15.08;85.67;100088.69;30985145;28;20465;-78
2023/10/19 21:03:00;;;;;;;4.13;2.73;;;;;;;14.91;88.72;100079.19;30990650;28;20430;-78
2023/10/19 21:18:02;;;;;;;4.37;2.37;;;;;;;14.72;91.80;100077.56;30999265;28;20467;-78
2023/10/19 21:33:04;;;;;;;5.00;2.47;;;;;;;14.81;90.62;100050.28;30999501;28;20050;-78
2023/10/19 21:48:07;;;;;;;5.10;2.30;;;;;;;14.81;91.59;100053.78;30984916;28;20054;-78
2023/10/19 22:03:10;;;;;;;5.50;2.20;;;;;;;14.69;91.59;100079.22;30977860;28;20495;-78
2023/10/19 22:18:14;;;;;;;3.63;2.10;;;;;;;14.60;92.87;100066.28;30989756;28;20058;-77
2023/10/19 22:33:16;;;;;;;4.17;2.40;;;;;;;14.62;96.47;100052.19;30990089;28;20050;-77
2023/10/19 22:48:18;;;;;;;3.27;2.30;;;;;;;14.66;98.46;100048.06;30991414;28;20062;-77
2023/10/19 23:03:20;;;;;;;4.53;2.93;;;;;;;14.65;99.39;100041.09;30993497;28;20513;-76
2023/10/19 23:18:22;;;;;;;11.37;4.00;;;;;;;14.49;100.00;100011.28;30978930;28;20108;-77
2023/10/19 23:33:24;;;;;;;7.90;3.83;;;;;;;14.60;100.00;99994.50;30976388;28;20054;-77
2023/10/19 23:48:27;;;;;;;4.97;3.30;;;;;;;14.64;100.00;99968.53;30983807;28;20089;-77
